sensor_id;sensor_type;location;lat;lon;timestamp;temperature;humidity
4749;DHT22;2388;53.582;9.962;2022-09-17T00:00:56;13.20;99.90
4749;DHT22;2388;53.582;9.962;2022-09-17T00:03:22;13.10;99.90
4749;DHT22;2388;53.582;9.962;2022-09-17T00:05:49;13.20;99.90
4749;DHT22;2388;53.582;9.962;2022-09-17T00:08:14;13.10;99.90
4749;DHT22;2388;53.582;9.962;2022-09-17T00:10:42;13.10;99.90
4749;DHT22;2388;53.582;9.962;2022-09-17T00:13:08;13.20;99.90
4749;DHT22;2388;53.582;9.962;2022-09-17T00:15:45;13.10;99.90
4749;DHT22;2388;53.582;9.962;2022-09-17T00:18:11;13.10;99.90
4749;DHT22;2388;53.582;9.962;2022-09-17T00:20:42;13.10;99.90
4749;DHT22;2388;53.582;9.962;2022-09-17T00:23:09;13.20;99.90
4749;DHT22;2388;53.582;9.962;2022-09-17T00:25:39;13.20;99.90
4749;DHT22;2388;53.582;9.962;2022-09-17T00:28:05;13.20;99.90
4749;DHT22;2388;53.582;9.962;2022-09-17T00:30:31;13.20;99.90
4749;DHT22;2388;53.582;9.962;2022-09-17T00:32:56;13.10;99.90
4749;DHT22;2388;53.582;9.962;2022-09-17T00:35:23;13.10;99.90
4749;DHT22;2388;53.582;9.962;2022-09-17T00:37:49;13.10;99.90
4749;DHT22;2388;53.582;9.962;2022-09-17T00:40:14;13.10;99.90
4749;DHT22;2388;53.582;9.962;2022-09-17T00:42:40;13.20;99.90
4749;DHT22;2388;53.582;9.962;2022-09-17T00:45:06;13.20;99.90
4749;DHT22;2388;53.582;9.962;2022-09-17T00:47:58;13.20;99.90
4749;DHT22;2388;53.582;9.962;2022-09-17T00:50:40;13.20;99.90
4749;DHT22;2388;53.582;9.962;2022-09-17T00:53:12;13.10;99.90
4749;DHT22;2388;53.582;9.962;2022-09-17T00:55:58;13.20;99.90
4749;DHT22;2388;53.582;9.962;2022-09-17T00:58:26;13.20;99.90
4749;DHT22;2388;53.582;9.962;2022-09-17T01:00:52;13.20;99.90
4749;DHT22;2388;53.582;9.962;2022-09-17T01:03:17;13.10;99.90
4749;DHT22;2388;53.582;9.962;2022-09-17T01:11:45;13.10;99.90
4749;DHT22;2388;53.582;9.962;2022-09-17T01:17:25;13.00;99.90
4749;DHT22;2388;53.582;9.962;2022-09-17T01:20:21;13.00;99.90
4749;DHT22;2388;53.582;9.962;2022-09-17T01:26:18;12.90;99.90
4749;DHT22;2388;53.582;9.962;2022-09-17T01:34:32;12.90;99.90
4749;DHT22;2388;53.582;9.962;2022-09-17T01:37:13;12.90;99.90
4749;DHT22;2388;53.582;9.962;2022-09-17T01:40:04;12.90;99.90
4749;DHT22;2388;53.582;9.962;2022-09-17T01:42:56;12.90;99.90
4749;DHT22;2388;53.582;9.962;2022-09-17T01:45:28;12.90;99.90
4749;DHT22;2388;53.582;9.962;2022-09-17T01:48:14;12.90;99.90
4749;DHT22;2388;53.582;9.962;2022-09-17T01:50:59;12.90;99.90
4749;DHT22;2388;53.582;9.962;2022-09-17T01:53:37;12.80;99.90
4749;DHT22;2388;53.582;9.962;2022-09-17T01:56:07;12.80;99.90
4749;DHT22;2388;53.582;9.962;2022-09-17T01:58:39;12.80;99.90
4749;DHT22;2388;53.582;9.962;2022-09-17T02:01:08;12.90;99.90
4749;DHT22;2388;53.582;9.962;2022-09-17T02:03:41;12.80;99.90
4749;DHT22;2388;53.582;9.962;2022-09-17T02:06:16;12.80;99.90
4749;DHT22;2388;53.582;9.962;2022-09-17T02:08:57;12.80;99.90
4749;DHT22;2388;53.582;9.962;2022-09-17T02:11:24;12.80;99.90
4749;DHT22;2388;53.582;9.962;2022-09-17T02:14:03;12.70;99.90
4749;DHT22;2388;53.582;9.962;2022-09-17T02:16:33;12.70;99.90
4749;DHT22;2388;53.582;9.962;2022-09-17T02:19:13;12.70;99.90
4749;DHT22;2388;53.582;9.962;2022-09-17T02:22:11;12.60;99.90
4749;DHT22;2388;53.582;9.962;2022-09-17T02:27:57;12.60;99.90
4749;DHT22;2388;53.582;9.962;2022-09-17T02:30:25;12.60;99.90
4749;DHT22;2388;53.582;9.962;2022-09-17T02:32:51;12.70;99.90
4749;DHT22;2388;53.582;9.962;2022-09-17T02:35:18;12.60;99.90
4749;DHT22;2388;53.582;9.962;2022-09-17T02:37:44;12.60;99.90
4749;DHT22;2388;53.582;9.962;2022-09-17T02:40:12;12.60;99.90
4749;DHT22;2388;53.582;9.962;2022-09-17T02:42:46;12.60;99.90
4749;DHT22;2388;53.582;9.962;2022-09-17T02:45:41;12.70;99.90
4749;DHT22;2388;53.582;9.962;2022-09-17T02:56:48;12.50;99.90
4749;DHT22;2388;53.582;9.962;2022-09-17T02:59:46;12.50;99.90
4749;DHT22;2388;53.582;9.962;2022-09-17T03:02:23;12.50;99.90
4749;DHT22;2388;53.582;9.962;2022-09-17T03:04:50;12.50;99.90
4749;DHT22;2388;53.582;9.962;2022-09-17T03:07:18;12.60;99.90
4749;DHT22;2388;53.582;9.962;2022-09-17T03:09:44;12.60;99.90
4749;DHT22;2388;53.582;9.962;2022-09-17T03:12:10;12.60;99.90
4749;DHT22;2388;53.582;9.962;2022-09-17T03:14:36;12.50;99.90
4749;DHT22;2388;53.582;9.962;2022-09-17T03:17:01;12.60;99.90
4749;DHT22;2388;53.582;9.962;2022-09-17T03:19:27;12.60;99.90
4749;DHT22;2388;53.582;9.962;2022-09-17T03:21:53;12.50;99.90
4749;DHT22;2388;53.582;9.962;2022-09-17T03:24:19;12.60;99.90
4749;DHT22;2388;53.582;9.962;2022-09-17T03:26:44;12.50;99.90
4749;DHT22;2388;53.582;9.962;2022-09-17T03:29:12;12.50;99.90
4749;DHT22;2388;53.582;9.962;2022-09-17T03:31:37;12.50;99.90
4749;DHT22;2388;53.582;9.962;2022-09-17T03:34:03;12.50;99.90
4749;DHT22;2388;53.582;9.962;2022-09-17T03:36:28;12.50;99.90
4749;DHT22;2388;53.582;9.962;2022-09-17T03:38:55;12.50;99.90
4749;DHT22;2388;53.582;9.962;2022-09-17T03:41:21;12.50;99.90
4749;DHT22;2388;53.582;9.962;2022-09-17T03:43:46;12.50;99.90
4749;DHT22;2388;53.582;9.962;2022-09-17T03:46:12;12.50;99.90
4749;DHT22;2388;53.582;9.962;2022-09-17T03:48:38;12.50;99.90
4749;DHT22;2388;53.582;9.962;2022-09-17T03:51:04;12.50;99.90
4749;DHT22;2388;53.582;9.962;2022-09-17T03:53:30;12.50;99.90
4749;DHT22;2388;53.582;9.962;2022-09-17T03:56:00;12.40;99.90
4749;DHT22;2388;53.582;9.962;2022-09-17T03:58:29;12.40;99.90
4749;DHT22;2388;53.582;9.962;2022-09-17T04:00:54;12.40;99.90
4749;DHT22;2388;53.582;9.962;2022-09-17T04:03:26;12.50;99.90
4749;DHT22;2388;53.582;9.962;2022-09-17T04:05:52;12.40;99.90
4749;DHT22;2388;53.582;9.962;2022-09-17T04:08:18;12.40;99.90
4749;DHT22;2388;53.582;9.962;2022-09-17T04:10:44;12.40;99.90
4749;DHT22;2388;53.582;9.962;2022-09-17T04:13:10;12.40;99.90
4749;DHT22;2388;53.582;9.962;2022-09-17T04:15:36;12.40;99.90
4749;DHT22;2388;53.582;9.962;2022-09-17T04:18:01;12.30;99.90
4749;DHT22;2388;53.582;9.962;2022-09-17T04:20:27;12.30;99.90
4749;DHT22;2388;53.582;9.962;2022-09-17T04:22:53;12.30;99.90
4749;DHT22;2388;53.582;9.962;2022-09-17T04:25:19;12.40;99.90
4749;DHT22;2388;53.582;9.962;2022-09-17T04:27:45;12.30;99.90
4749;DHT22;2388;53.582;9.962;2022-09-17T04:30:12;12.30;99.90
4749;DHT22;2388;53.582;9.962;2022-09-17T04:32:37;12.30;99.90
4749;DHT22;2388;53.582;9.962;2022-09-17T04:35:03;12.40;99.90
4749;DHT22;2388;53.582;9.962;2022-09-17T04:37:29;12.40;99.90
4749;DHT22;2388;53.582;9.962;2022-09-17T04:39:54;12.40;99.90
4749;DHT22;2388;53.582;9.962;2022-09-17T04:42:20;12.40;99.90
4749;DHT22;2388;53.582;9.962;2022-09-17T04:44:45;12.40;99.90
4749;DHT22;2388;53.582;9.962;2022-09-17T04:47:11;12.40;99.90
4749;DHT22;2388;53.582;9.962;2022-09-17T04:49:36;12.40;99.90
4749;DHT22;2388;53.582;9.962;2022-09-17T04:52:02;12.40;99.90
4749;DHT22;2388;53.582;9.962;2022-09-17T04:54:27;12.40;99.90
4749;DHT22;2388;53.582;9.962;2022-09-17T04:56:53;12.50;99.90
4749;DHT22;2388;53.582;9.962;2022-09-17T04:59:18;12.50;99.90
4749;DHT22;2388;53.582;9.962;2022-09-17T05:01:44;12.60;99.90
4749;DHT22;2388;53.582;9.962;2022-09-17T05:04:09;12.60;99.90
4749;DHT22;2388;53.582;9.962;2022-09-17T05:06:35;12.60;99.90
4749;DHT22;2388;53.582;9.962;2022-09-17T05:09:00;12.60;99.90
4749;DHT22;2388;53.582;9.962;2022-09-17T05:11:29;12.60;99.90
4749;DHT22;2388;53.582;9.962;2022-09-17T05:13:55;12.60;99.90
4749;DHT22;2388;53.582;9.962;2022-09-17T05:16:20;12.40;99.90
4749;DHT22;2388;53.582;9.962;2022-09-17T05:18:46;12.30;99.90
4749;DHT22;2388;53.582;9.962;2022-09-17T05:21:12;12.20;99.90
4749;DHT22;2388;53.582;9.962;2022-09-17T05:23:37;12.10;99.90
4749;DHT22;2388;53.582;9.962;2022-09-17T05:26:03;12.10;99.90
4749;DHT22;2388;53.582;9.962;2022-09-17T05:28:28;12.00;99.90
4749;DHT22;2388;53.582;9.962;2022-09-17T05:30:57;12.00;99.90
4749;DHT22;2388;53.582;9.962;2022-09-17T05:33:22;11.90;99.90
4749;DHT22;2388;53.582;9.962;2022-09-17T05:35:48;11.90;99.90
4749;DHT22;2388;53.582;9.962;2022-09-17T05:38:13;11.90;99.90
4749;DHT22;2388;53.582;9.962;2022-09-17T05:40:39;11.90;99.90
4749;DHT22;2388;53.582;9.962;2022-09-17T05:43:05;11.90;99.90
4749;DHT22;2388;53.582;9.962;2022-09-17T05:45:35;11.90;99.90
4749;DHT22;2388;53.582;9.962;2022-09-17T05:48:02;11.90;99.90
4749;DHT22;2388;53.582;9.962;2022-09-17T05:50:29;11.90;99.90
4749;DHT22;2388;53.582;9.962;2022-09-17T05:52:55;11.90;99.90
4749;DHT22;2388;53.582;9.962;2022-09-17T05:55:21;11.90;99.90
4749;DHT22;2388;53.582;9.962;2022-09-17T05:57:48;11.90;99.90
4749;DHT22;2388;53.582;9.962;2022-09-17T06:00:14;11.90;99.90
4749;DHT22;2388;53.582;9.962;2022-09-17T06:02:40;11.90;99.90
4749;DHT22;2388;53.582;9.962;2022-09-17T06:05:06;12.00;99.90
4749;DHT22;2388;53.582;9.962;2022-09-17T06:07:35;12.00;99.90
4749;DHT22;2388;53.582;9.962;2022-09-17T06:10:01;12.00;99.90
4749;DHT22;2388;53.582;9.962;2022-09-17T06:12:26;12.20;99.90
4749;DHT22;2388;53.582;9.962;2022-09-17T06:14:52;12.30;99.90
4749;DHT22;2388;53.582;9.962;2022-09-17T06:17:17;12.20;99.90
4749;DHT22;2388;53.582;9.962;2022-09-17T06:19:43;12.20;99.90
4749;DHT22;2388;53.582;9.962;2022-09-17T06:22:08;12.20;99.90
4749;DHT22;2388;53.582;9.962;2022-09-17T06:24:34;12.20;99.90
4749;DHT22;2388;53.582;9.962;2022-09-17T06:26:59;12.00;99.90
4749;DHT22;2388;53.582;9.962;2022-09-17T06:29:25;12.00;99.90
4749;DHT22;2388;53.582;9.962;2022-09-17T06:31:50;12.00;99.90
4749;DHT22;2388;53.582;9.962;2022-09-17T06:34:16;12.00;99.90
4749;DHT22;2388;53.582;9.962;2022-09-17T06:36:42;11.90;99.90
4749;DHT22;2388;53.582;9.962;2022-09-17T06:39:08;11.90;99.90
4749;DHT22;2388;53.582;9.962;2022-09-17T06:41:33;11.90;99.90
4749;DHT22;2388;53.582;9.962;2022-09-17T06:43:59;11.90;99.90
4749;DHT22;2388;53.582;9.962;2022-09-17T06:46:26;12.00;99.90
4749;DHT22;2388;53.582;9.962;2022-09-17T06:48:51;12.00;99.90
4749;DHT22;2388;53.582;9.962;2022-09-17T06:51:17;12.00;99.90
4749;DHT22;2388;53.582;9.962;2022-09-17T06:53:42;12.00;99.90
4749;DHT22;2388;53.582;9.962;2022-09-17T06:56:08;12.00;99.90
4749;DHT22;2388;53.582;9.962;2022-09-17T06:58:35;12.00;99.90
4749;DHT22;2388;53.582;9.962;2022-09-17T07:01:06;12.00;99.90
4749;DHT22;2388;53.582;9.962;2022-09-17T07:03:32;12.10;99.90
4749;DHT22;2388;53.582;9.962;2022-09-17T07:05:58;12.10;99.90
4749;DHT22;2388;53.582;9.962;2022-09-17T07:08:23;12.20;99.90
4749;DHT22;2388;53.582;9.962;2022-09-17T07:10:50;12.20;99.90
4749;DHT22;2388;53.582;9.962;2022-09-17T07:13:16;12.30;99.90
4749;DHT22;2388;53.582;9.962;2022-09-17T07:15:41;12.30;99.90
4749;DHT22;2388;53.582;9.962;2022-09-17T07:18:11;12.40;99.90
4749;DHT22;2388;53.582;9.962;2022-09-17T07:20:37;12.40;99.90
4749;DHT22;2388;53.582;9.962;2022-09-17T07:23:03;12.40;99.90
4749;DHT22;2388;53.582;9.962;2022-09-17T07:25:28;12.40;99.90
4749;DHT22;2388;53.582;9.962;2022-09-17T07:27:54;12.40;99.90
4749;DHT22;2388;53.582;9.962;2022-09-17T07:30:20;12.50;99.90
4749;DHT22;2388;53.582;9.962;2022-09-17T07:32:46;12.50;99.90
4749;DHT22;2388;53.582;9.962;2022-09-17T07:35:12;12.50;99.90
4749;DHT22;2388;53.582;9.962;2022-09-17T07:37:38;12.40;99.90
4749;DHT22;2388;53.582;9.962;2022-09-17T07:40:04;12.40;99.90
4749;DHT22;2388;53.582;9.962;2022-09-17T07:42:33;12.50;99.90
4749;DHT22;2388;53.582;9.962;2022-09-17T07:44:59;12.50;99.90
4749;DHT22;2388;53.582;9.962;2022-09-17T07:47:25;12.40;99.90
4749;DHT22;2388;53.582;9.962;2022-09-17T07:49:50;12.40;99.90
4749;DHT22;2388;53.582;9.962;2022-09-17T07:52:16;12.40;99.90
4749;DHT22;2388;53.582;9.962;2022-09-17T07:54:41;12.50;99.90
4749;DHT22;2388;53.582;9.962;2022-09-17T07:57:07;12.50;99.90
4749;DHT22;2388;53.582;9.962;2022-09-17T07:59:32;12.60;99.90
4749;DHT22;2388;53.582;9.962;2022-09-17T08:01:58;12.60;99.90
4749;DHT22;2388;53.582;9.962;2022-09-17T08:04:24;12.60;99.90
4749;DHT22;2388;53.582;9.962;2022-09-17T08:06:49;12.60;99.90
4749;DHT22;2388;53.582;9.962;2022-09-17T08:09:16;12.60;99.90
4749;DHT22;2388;53.582;9.962;2022-09-17T08:11:42;12.70;99.90
4749;DHT22;2388;53.582;9.962;2022-09-17T08:14:12;12.80;99.90
4749;DHT22;2388;53.582;9.962;2022-09-17T08:16:39;12.80;99.90
4749;DHT22;2388;53.582;9.962;2022-09-17T08:19:04;12.80;99.90
4749;DHT22;2388;53.582;9.962;2022-09-17T08:21:30;12.70;99.90
4749;DHT22;2388;53.582;9.962;2022-09-17T08:23:55;12.70;99.90
4749;DHT22;2388;53.582;9.962;2022-09-17T08:26:22;12.60;99.90
4749;DHT22;2388;53.582;9.962;2022-09-17T08:28:53;12.60;99.90
4749;DHT22;2388;53.582;9.962;2022-09-17T08:31:21;12.70;99.90
4749;DHT22;2388;53.582;9.962;2022-09-17T08:33:47;12.60;99.90
4749;DHT22;2388;53.582;9.962;2022-09-17T08:36:15;12.60;99.90
4749;DHT22;2388;53.582;9.962;2022-09-17T08:38:41;12.50;99.90
4749;DHT22;2388;53.582;9.962;2022-09-17T08:46:09;12.60;99.90
4749;DHT22;2388;53.582;9.962;2022-09-17T08:48:52;12.60;99.90
4749;DHT22;2388;53.582;9.962;2022-09-17T08:54:49;12.90;99.90
4749;DHT22;2388;53.582;9.962;2022-09-17T09:00:03;13.00;99.90
4749;DHT22;2388;53.582;9.962;2022-09-17T09:02:49;12.90;99.90
4749;DHT22;2388;53.582;9.962;2022-09-17T09:05:24;13.00;99.90
4749;DHT22;2388;53.582;9.962;2022-09-17T09:08:01;13.00;99.90
4749;DHT22;2388;53.582;9.962;2022-09-17T09:10:31;13.00;99.90
4749;DHT22;2388;53.582;9.962;2022-09-17T09:13:03;13.00;99.90
4749;DHT22;2388;53.582;9.962;2022-09-17T09:15:44;13.10;99.90
4749;DHT22;2388;53.582;9.962;2022-09-17T09:18:18;13.10;99.90
4749;DHT22;2388;53.582;9.962;2022-09-17T09:20:49;13.10;99.90
4749;DHT22;2388;53.582;9.962;2022-09-17T09:26:16;13.00;99.90
4749;DHT22;2388;53.582;9.962;2022-09-17T09:34:21;13.10;99.90
4749;DHT22;2388;53.582;9.962;2022-09-17T09:36:48;13.20;99.90
4749;DHT22;2388;53.582;9.962;2022-09-17T09:39:23;13.20;99.90
4749;DHT22;2388;53.582;9.962;2022-09-17T09:42:03;13.20;99.90
4749;DHT22;2388;53.582;9.962;2022-09-17T09:44:29;13.20;99.90
4749;DHT22;2388;53.582;9.962;2022-09-17T09:47:20;13.30;99.90
4749;DHT22;2388;53.582;9.962;2022-09-17T09:50:07;13.30;99.90
4749;DHT22;2388;53.582;9.962;2022-09-17T09:58:08;13.10;99.90
4749;DHT22;2388;53.582;9.962;2022-09-17T10:00:38;13.00;99.90
4749;DHT22;2388;53.582;9.962;2022-09-17T10:03:12;13.10;99.90
4749;DHT22;2388;53.582;9.962;2022-09-17T10:05:39;13.00;99.90
4749;DHT22;2388;53.582;9.962;2022-09-17T10:08:16;13.10;99.90
4749;DHT22;2388;53.582;9.962;2022-09-17T10:11:01;13.00;99.90
4749;DHT22;2388;53.582;9.962;2022-09-17T10:13:32;13.10;99.90
4749;DHT22;2388;53.582;9.962;2022-09-17T10:18:44;13.20;99.90
4749;DHT22;2388;53.582;9.962;2022-09-17T10:23:45;13.20;99.90
4749;DHT22;2388;53.582;9.962;2022-09-17T10:26:25;13.20;99.90
4749;DHT22;2388;53.582;9.962;2022-09-17T10:28:57;13.20;99.90
4749;DHT22;2388;53.582;9.962;2022-09-17T10:31:23;13.40;99.90
4749;DHT22;2388;53.582;9.962;2022-09-17T10:34:00;13.50;99.90
4749;DHT22;2388;53.582;9.962;2022-09-17T10:36:43;13.60;99.90
4749;DHT22;2388;53.582;9.962;2022-09-17T10:44:36;13.20;99.90
4749;DHT22;2388;53.582;9.962;2022-09-17T10:47:13;13.10;99.90
4749;DHT22;2388;53.582;9.962;2022-09-17T10:49:45;13.00;99.90
4749;DHT22;2388;53.582;9.962;2022-09-17T10:52:38;13.00;99.90
4749;DHT22;2388;53.582;9.962;2022-09-17T10:55:32;13.10;99.90
4749;DHT22;2388;53.582;9.962;2022-09-17T11:03:36;13.30;99.90
4749;DHT22;2388;53.582;9.962;2022-09-17T11:06:07;13.30;99.90
4749;DHT22;2388;53.582;9.962;2022-09-17T11:11:40;13.40;99.90
4749;DHT22;2388;53.582;9.962;2022-09-17T11:14:39;13.30;99.90
4749;DHT22;2388;53.582;9.962;2022-09-17T11:17:41;13.40;99.90
4749;DHT22;2388;53.582;9.962;2022-09-17T11:23:18;13.60;99.90
4749;DHT22;2388;53.582;9.962;2022-09-17T11:25:55;13.60;99.90
4749;DHT22;2388;53.582;9.962;2022-09-17T11:28:51;13.60;99.90
4749;DHT22;2388;53.582;9.962;2022-09-17T11:32:25;13.70;99.90
4749;DHT22;2388;53.582;9.962;2022-09-17T11:34:38;13.70;99.90
4749;DHT22;2388;53.582;9.962;2022-09-17T11:37:27;13.70;99.90
4749;DHT22;2388;53.582;9.962;2022-09-17T11:40:03;13.80;99.90
4749;DHT22;2388;53.582;9.962;2022-09-17T11:43:00;13.80;99.90
4749;DHT22;2388;53.582;9.962;2022-09-17T11:45:40;13.80;99.90
4749;DHT22;2388;53.582;9.962;2022-09-17T11:48:13;13.80;99.90
4749;DHT22;2388;53.582;9.962;2022-09-17T11:50:43;13.80;99.90
4749;DHT22;2388;53.582;9.962;2022-09-17T11:53:24;13.80;99.90
4749;DHT22;2388;53.582;9.962;2022-09-17T11:55:57;13.80;99.90
4749;DHT22;2388;53.582;9.962;2022-09-17T11:58:45;13.60;99.90
4749;DHT22;2388;53.582;9.962;2022-09-17T12:01:25;13.50;99.90
4749;DHT22;2388;53.582;9.962;2022-09-17T12:04:04;13.50;99.90
4749;DHT22;2388;53.582;9.962;2022-09-17T12:06:49;13.60;99.90
4749;DHT22;2388;53.582;9.962;2022-09-17T12:09:19;13.70;99.90
4749;DHT22;2388;53.582;9.962;2022-09-17T12:12:00;13.80;99.90
4749;DHT22;2388;53.582;9.962;2022-09-17T12:14:42;13.80;99.90
4749;DHT22;2388;53.582;9.962;2022-09-17T12:17:14;13.90;99.90
4749;DHT22;2388;53.582;9.962;2022-09-17T12:19:48;13.80;99.90
4749;DHT22;2388;53.582;9.962;2022-09-17T12:22:34;13.70;99.90
4749;DHT22;2388;53.582;9.962;2022-09-17T12:25:02;13.60;99.90
4749;DHT22;2388;53.582;9.962;2022-09-17T12:27:37;13.80;99.90
4749;DHT22;2388;53.582;9.962;2022-09-17T12:30:18;13.90;99.90
4749;DHT22;2388;53.582;9.962;2022-09-17T12:32:53;14.00;99.90
4749;DHT22;2388;53.582;9.962;2022-09-17T12:38:44;14.20;99.90
4749;DHT22;2388;53.582;9.962;2022-09-17T12:44:26;14.30;99.90
4749;DHT22;2388;53.582;9.962;2022-09-17T12:50:00;14.40;99.90
4749;DHT22;2388;53.582;9.962;2022-09-17T12:52:43;14.70;99.90
4749;DHT22;2388;53.582;9.962;2022-09-17T13:01:25;14.90;99.90
4749;DHT22;2388;53.582;9.962;2022-09-17T13:04:07;15.10;99.90
4749;DHT22;2388;53.582;9.962;2022-09-17T13:07:04;15.20;1.00
4749;DHT22;2388;53.582;9.962;2022-09-17T13:10:17;15.10;1.00
4749;DHT22;2388;53.582;9.962;2022-09-17T13:13:27;15.10;1.00
4749;DHT22;2388;53.582;9.962;2022-09-17T13:16:27;15.10;1.00
4749;DHT22;2388;53.582;9.962;2022-09-17T13:21:58;14.70;99.90
4749;DHT22;2388;53.582;9.962;2022-09-17T13:24:26;14.20;99.90
4749;DHT22;2388;53.582;9.962;2022-09-17T13:26:55;14.00;99.90
4749;DHT22;2388;53.582;9.962;2022-09-17T13:37:43;13.60;99.90
4749;DHT22;2388;53.582;9.962;2022-09-17T13:40:29;13.50;99.90
4749;DHT22;2388;53.582;9.962;2022-09-17T13:45:29;13.30;99.90
4749;DHT22;2388;53.582;9.962;2022-09-17T13:48:02;13.40;99.90
4749;DHT22;2388;53.582;9.962;2022-09-17T13:50:33;13.40;99.90
4749;DHT22;2388;53.582;9.962;2022-09-17T13:53:05;13.30;99.90
4749;DHT22;2388;53.582;9.962;2022-09-17T13:55:36;13.60;99.90
4749;DHT22;2388;53.582;9.962;2022-09-17T13:58:05;13.70;99.90
4749;DHT22;2388;53.582;9.962;2022-09-17T14:00:52;13.80;99.90
4749;DHT22;2388;53.582;9.962;2022-09-17T14:05:56;14.00;99.90
4749;DHT22;2388;53.582;9.962;2022-09-17T14:13:48;14.10;99.90
4749;DHT22;2388;53.582;9.962;2022-09-17T14:22:12;14.00;99.90
4749;DHT22;2388;53.582;9.962;2022-09-17T14:24:46;14.10;99.90
4749;DHT22;2388;53.582;9.962;2022-09-17T14:38:11;14.20;99.90
4749;DHT22;2388;53.582;9.962;2022-09-17T14:41:03;14.10;99.90
4749;DHT22;2388;53.582;9.962;2022-09-17T14:46:33;13.70;99.90
4749;DHT22;2388;53.582;9.962;2022-09-17T14:49:23;13.60;99.90
4749;DHT22;2388;53.582;9.962;2022-09-17T14:51:50;13.40;99.90
4749;DHT22;2388;53.582;9.962;2022-09-17T14:54:21;13.30;99.90
4749;DHT22;2388;53.582;9.962;2022-09-17T14:57:01;13.20;99.90
4749;DHT22;2388;53.582;9.962;2022-09-17T15:02:38;13.10;99.90
4749;DHT22;2388;53.582;9.962;2022-09-17T15:05:18;13.10;99.90
4749;DHT22;2388;53.582;9.962;2022-09-17T15:07:45;13.10;99.90
4749;DHT22;2388;53.582;9.962;2022-09-17T15:10:20;13.10;99.90
4749;DHT22;2388;53.582;9.962;2022-09-17T15:12:47;13.10;99.90
4749;DHT22;2388;53.582;9.962;2022-09-17T15:15:18;13.10;99.90
4749;DHT22;2388;53.582;9.962;2022-09-17T15:17:45;13.10;99.90
4749;DHT22;2388;53.582;9.962;2022-09-17T15:20:15;13.20;99.90
4749;DHT22;2388;53.582;9.962;2022-09-17T15:22:42;13.20;99.90
4749;DHT22;2388;53.582;9.962;2022-09-17T15:25:16;13.20;99.90
4749;DHT22;2388;53.582;9.962;2022-09-17T15:27:45;13.20;99.90
4749;DHT22;2388;53.582;9.962;2022-09-17T15:30:17;13.20;99.90
4749;DHT22;2388;53.582;9.962;2022-09-17T15:32:55;13.20;99.90
4749;DHT22;2388;53.582;9.962;2022-09-17T15:37:51;13.10;99.90
4749;DHT22;2388;53.582;9.962;2022-09-17T15:40:28;13.00;99.90
4749;DHT22;2388;53.582;9.962;2022-09-17T15:43:16;13.00;99.90
4749;DHT22;2388;53.582;9.962;2022-09-17T15:45:42;13.00;99.90
4749;DHT22;2388;53.582;9.962;2022-09-17T15:50:56;13.00;99.90
4749;DHT22;2388;53.582;9.962;2022-09-17T15:53:25;13.00;99.90
4749;DHT22;2388;53.582;9.962;2022-09-17T15:56:08;13.00;99.90
4749;DHT22;2388;53.582;9.962;2022-09-17T16:08:56;13.00;99.90
4749;DHT22;2388;53.582;9.962;2022-09-17T16:11:31;13.00;99.90
4749;DHT22;2388;53.582;9.962;2022-09-17T16:13:58;12.90;99.90
4749;DHT22;2388;53.582;9.962;2022-09-17T16:16:31;12.90;99.90
4749;DHT22;2388;53.582;9.962;2022-09-17T16:18:57;12.90;99.90
4749;DHT22;2388;53.582;9.962;2022-09-17T16:21:23;12.90;99.90
4749;DHT22;2388;53.582;9.962;2022-09-17T16:23:49;12.90;99.90
4749;DHT22;2388;53.582;9.962;2022-09-17T16:26:18;12.90;99.90
4749;DHT22;2388;53.582;9.962;2022-09-17T16:28:45;12.90;99.90
4749;DHT22;2388;53.582;9.962;2022-09-17T16:31:12;12.90;99.90
4749;DHT22;2388;53.582;9.962;2022-09-17T16:33:38;12.90;99.90
4749;DHT22;2388;53.582;9.962;2022-09-17T16:36:04;12.90;99.90
4749;DHT22;2388;53.582;9.962;2022-09-17T16:38:29;12.90;99.90
4749;DHT22;2388;53.582;9.962;2022-09-17T16:40:55;12.90;99.90
4749;DHT22;2388;53.582;9.962;2022-09-17T16:43:20;12.90;99.90
4749;DHT22;2388;53.582;9.962;2022-09-17T16:46:03;12.80;99.90
4749;DHT22;2388;53.582;9.962;2022-09-17T16:48:31;12.80;99.90
4749;DHT22;2388;53.582;9.962;2022-09-17T16:50:57;12.80;99.90
4749;DHT22;2388;53.582;9.962;2022-09-17T16:53:23;12.80;99.90
4749;DHT22;2388;53.582;9.962;2022-09-17T16:55:48;12.80;99.90
4749;DHT22;2388;53.582;9.962;2022-09-17T16:58:14;12.80;99.90
4749;DHT22;2388;53.582;9.962;2022-09-17T17:00:43;12.80;99.90
4749;DHT22;2388;53.582;9.962;2022-09-17T17:03:12;12.80;99.90
4749;DHT22;2388;53.582;9.962;2022-09-17T17:05:38;12.80;99.90
4749;DHT22;2388;53.582;9.962;2022-09-17T17:08:04;12.80;99.90
4749;DHT22;2388;53.582;9.962;2022-09-17T17:10:29;12.80;99.90
4749;DHT22;2388;53.582;9.962;2022-09-17T17:12:55;12.80;99.90
4749;DHT22;2388;53.582;9.962;2022-09-17T17:15:21;12.80;99.90
4749;DHT22;2388;53.582;9.962;2022-09-17T17:17:47;12.80;99.90
4749;DHT22;2388;53.582;9.962;2022-09-17T17:20:12;12.80;99.90
4749;DHT22;2388;53.582;9.962;2022-09-17T17:22:39;12.80;99.90
4749;DHT22;2388;53.582;9.962;2022-09-17T17:25:06;12.80;99.90
4749;DHT22;2388;53.582;9.962;2022-09-17T17:27:33;12.80;99.90
4749;DHT22;2388;53.582;9.962;2022-09-17T17:29:58;12.70;99.90
4749;DHT22;2388;53.582;9.962;2022-09-17T17:32:26;12.70;99.90
4749;DHT22;2388;53.582;9.962;2022-09-17T17:34:52;12.70;99.90
4749;DHT22;2388;53.582;9.962;2022-09-17T17:37:17;12.70;99.90
4749;DHT22;2388;53.582;9.962;2022-09-17T17:39:43;12.60;99.90
4749;DHT22;2388;53.582;9.962;2022-09-17T17:42:08;12.60;99.90
4749;DHT22;2388;53.582;9.962;2022-09-17T17:44:34;12.60;99.90
4749;DHT22;2388;53.582;9.962;2022-09-17T17:46:59;12.70;99.90
4749;DHT22;2388;53.582;9.962;2022-09-17T17:49:25;12.70;99.90
4749;DHT22;2388;53.582;9.962;2022-09-17T17:51:50;12.60;99.90
4749;DHT22;2388;53.582;9.962;2022-09-17T17:54:17;12.60;99.90
4749;DHT22;2388;53.582;9.962;2022-09-17T17:56:44;12.70;99.90
4749;DHT22;2388;53.582;9.962;2022-09-17T17:59:09;12.90;99.90
4749;DHT22;2388;53.582;9.962;2022-09-17T18:01:35;12.90;99.90
4749;DHT22;2388;53.582;9.962;2022-09-17T18:04:03;12.80;99.90
4749;DHT22;2388;53.582;9.962;2022-09-17T18:06:30;12.70;99.90
4749;DHT22;2388;53.582;9.962;2022-09-17T18:08:55;12.70;99.90
4749;DHT22;2388;53.582;9.962;2022-09-17T18:11:21;12.70;99.90
4749;DHT22;2388;53.582;9.962;2022-09-17T18:13:51;12.70;99.90
4749;DHT22;2388;53.582;9.962;2022-09-17T18:16:17;12.70;99.90
4749;DHT22;2388;53.582;9.962;2022-09-17T18:18:44;12.60;99.90
4749;DHT22;2388;53.582;9.962;2022-09-17T18:21:16;12.60;99.90
4749;DHT22;2388;53.582;9.962;2022-09-17T18:23:42;12.60;99.90
4749;DHT22;2388;53.582;9.962;2022-09-17T18:26:11;12.60;99.90
4749;DHT22;2388;53.582;9.962;2022-09-17T18:28:37;12.60;99.90
4749;DHT22;2388;53.582;9.962;2022-09-17T18:31:07;12.60;99.90
4749;DHT22;2388;53.582;9.962;2022-09-17T18:33:34;12.60;99.90
4749;DHT22;2388;53.582;9.962;2022-09-17T18:36:02;12.60;99.90
4749;DHT22;2388;53.582;9.962;2022-09-17T18:38:28;12.70;99.90
4749;DHT22;2388;53.582;9.962;2022-09-17T18:40:54;12.60;99.90
4749;DHT22;2388;53.582;9.962;2022-09-17T18:43:20;12.60;99.90
4749;DHT22;2388;53.582;9.962;2022-09-17T18:45:53;12.60;99.90
4749;DHT22;2388;53.582;9.962;2022-09-17T18:48:19;12.60;99.90
4749;DHT22;2388;53.582;9.962;2022-09-17T18:50:57;12.60;99.90
4749;DHT22;2388;53.582;9.962;2022-09-17T18:53:24;12.50;99.90
4749;DHT22;2388;53.582;9.962;2022-09-17T18:55:50;12.60;99.90
4749;DHT22;2388;53.582;9.962;2022-09-17T18:58:16;12.60;99.90